Fairbank, Pennsylvania
Current Conditions -  °F | °C
As of 11:04 AM on Thursday 27 Nov 2014 (Local Time) from KMGW Reporting Station
Overcast Overcast  
Wind Chill: 31°   Ceiling: 5000
Heat Index: 35°   Visibility: 10mi
Dew Point: 27°   Wind: 5mph
Humidity: 72%   Direction: 300°WNW
Pressure: 30.08"   Gusts: NA
Location:  39.94°N, 79.85°W
Report Text: KMGW 271604Z 30004KT 10SM FEW014 SCT027 OVC050 02/M03 A3008 RMK AO2 T00171028
Loading
Personal Weather Stations






























Interactive Weather Map New forecast layout! Learn more

10-Day Weather Forecast

Advertisements
Track Severe Weather on mobile